sensor_id;sensor_type;location;lat;lon;timestamp;pressure;altitude;pressure_sealevel;temperature;humidity
24746;BME280;12845;52.042;6.838;2023-03-26T00:00:44;-18239.91;;;7.87;100.00
24746;BME280;12845;52.042;6.838;2023-03-26T00:03:14;-18239.91;;;7.87;100.00
24746;BME280;12845;52.042;6.838;2023-03-26T00:05:41;-18240.06;;;7.87;100.00
24746;BME280;12845;52.042;6.838;2023-03-26T00:08:07;-18239.78;;;7.86;100.00
24746;BME280;12845;52.042;6.838;2023-03-26T00:10:35;-18240.19;;;7.88;100.00
24746;BME280;12845;52.042;6.838;2023-03-26T00:13:01;-18239.50;;;7.85;100.00
24746;BME280;12845;52.042;6.838;2023-03-26T00:15:27;-18239.22;;;7.84;100.00
24746;BME280;12845;52.042;6.838;2023-03-26T00:17:52;-18239.38;;;7.85;100.00
24746;BME280;12845;52.042;6.838;2023-03-26T00:20:18;-18239.22;;;7.84;100.00
24746;BME280;12845;52.042;6.838;2023-03-26T00:22:44;-18238.97;;;7.83;100.00
24746;BME280;12845;52.042;6.838;2023-03-26T00:25:09;-18238.69;;;7.82;100.00
24746;BME280;12845;52.042;6.838;2023-03-26T00:27:35;-18238.28;;;7.81;100.00
24746;BME280;12845;52.042;6.838;2023-03-26T00:30:00;-18237.84;;;7.79;100.00
24746;BME280;12845;52.042;6.838;2023-03-26T00:32:29;-18238.13;;;7.80;100.00
24746;BME280;12845;52.042;6.838;2023-03-26T00:34:55;-18237.31;;;7.77;100.00
24746;BME280;12845;52.042;6.838;2023-03-26T00:37:22;-18238.41;;;7.81;100.00
24746;BME280;12845;52.042;6.838;2023-03-26T00:39:54;-18240.59;;;7.89;100.00
24746;BME280;12845;52.042;6.838;2023-03-26T00:42:24;-18239.22;;;7.84;100.00
24746;BME280;12845;52.042;6.838;2023-03-26T00:44:49;-18240.88;;;7.90;100.00
24746;BME280;12845;52.042;6.838;2023-03-26T00:47:19;-18240.34;;;7.88;100.00
24746;BME280;12845;52.042;6.838;2023-03-26T00:49:45;-18239.66;;;7.86;100.00
24746;BME280;12845;52.042;6.838;2023-03-26T00:52:13;-18240.34;;;7.88;100.00
24746;BME280;12845;52.042;6.838;2023-03-26T00:54:39;-18238.97;;;7.83;100.00
24746;BME280;12845;52.042;6.838;2023-03-26T00:57:05;-18238.41;;;7.81;100.00
24746;BME280;12845;52.042;6.838;2023-03-26T00:59:31;-18239.22;;;7.84;100.00
24746;BME280;12845;52.042;6.838;2023-03-26T01:02:00;-18238.53;;;7.82;100.00
24746;BME280;12845;52.042;6.838;2023-03-26T01:04:31;-18239.66;;;7.86;100.00
24746;BME280;12845;52.042;6.838;2023-03-26T01:07:18;-18239.50;;;7.85;100.00
24746;BME280;12845;52.042;6.838;2023-03-26T01:09:46;-18241.16;;;7.91;100.00
24746;BME280;12845;52.042;6.838;2023-03-26T01:12:20;-18242.00;;;7.95;100.00
24746;BME280;12845;52.042;6.838;2023-03-26T01:14:48;-18243.09;;;7.99;100.00
24746;BME280;12845;52.042;6.838;2023-03-26T01:17:14;-18244.59;;;8.04;100.00
24746;BME280;12845;52.042;6.838;2023-03-26T01:22:07;-18245.44;;;8.07;100.00
24746;BME280;12845;52.042;6.838;2023-03-26T01:24:35;-18246.25;;;8.10;100.00
24746;BME280;12845;52.042;6.838;2023-03-26T01:29:57;-18243.91;;;8.02;100.00
24746;BME280;12845;52.042;6.838;2023-03-26T01:40:36;-18239.78;;;7.86;100.00
24746;BME280;12845;52.042;6.838;2023-03-26T01:45:41;-18242.00;;;7.95;100.00
24746;BME280;12845;52.042;6.838;2023-03-26T01:48:08;-18241.16;;;7.91;100.00
24746;BME280;12845;52.042;6.838;2023-03-26T01:50:34;-18241.31;;;7.92;100.00
24746;BME280;12845;52.042;6.838;2023-03-26T01:52:59;-18242.25;;;7.96;100.00
24746;BME280;12845;52.042;6.838;2023-03-26T01:55:32;-18242.53;;;7.97;100.00
24746;BME280;12845;52.042;6.838;2023-03-26T01:58:12;-18242.53;;;7.97;100.00
24746;BME280;12845;52.042;6.838;2023-03-26T02:00:54;-18242.25;;;7.96;100.00
24746;BME280;12845;52.042;6.838;2023-03-26T02:03:31;-18241.44;;;7.93;100.00
24746;BME280;12845;52.042;6.838;2023-03-26T02:06:06;-18241.72;;;7.94;100.00
24746;BME280;12845;52.042;6.838;2023-03-26T02:09:02;-18242.53;;;7.97;100.00
24746;BME280;12845;52.042;6.838;2023-03-26T02:11:25;-18243.63;;;8.01;100.00
24746;BME280;12845;52.042;6.838;2023-03-26T02:13:52;-18243.91;;;8.02;100.00
24746;BME280;12845;52.042;6.838;2023-03-26T02:16:19;-18243.63;;;8.01;100.00
24746;BME280;12845;52.042;6.838;2023-03-26T02:18:46;-18243.91;;;8.02;100.00
24746;BME280;12845;52.042;6.838;2023-03-26T02:21:20;-18243.63;;;8.01;100.00
24746;BME280;12845;52.042;6.838;2023-03-26T02:23:49;-18243.50;;;8.00;100.00
24746;BME280;12845;52.042;6.838;2023-03-26T02:26:17;-18243.91;;;8.02;100.00
24746;BME280;12845;52.042;6.838;2023-03-26T02:28:43;-18243.91;;;8.02;100.00
24746;BME280;12845;52.042;6.838;2023-03-26T02:31:09;-18244.19;;;8.03;100.00
24746;BME280;12845;52.042;6.838;2023-03-26T02:33:35;-18243.22;;;7.99;100.00
24746;BME280;12845;52.042;6.838;2023-03-26T02:36:01;-18243.38;;;8.00;100.00
24746;BME280;12845;52.042;6.838;2023-03-26T02:38:35;-18243.50;;;8.00;100.00
24746;BME280;12845;52.042;6.838;2023-03-26T02:41:04;-18243.50;;;8.00;100.00
24746;BME280;12845;52.042;6.838;2023-03-26T02:43:29;-18243.63;;;8.01;100.00
24746;BME280;12845;52.042;6.838;2023-03-26T02:45:55;-18243.38;;;8.00;100.00
24746;BME280;12845;52.042;6.838;2023-03-26T02:48:20;-18243.63;;;8.01;100.00
24746;BME280;12845;52.042;6.838;2023-03-26T02:50:49;-18243.38;;;8.00;100.00
24746;BME280;12845;52.042;6.838;2023-03-26T02:53:18;-18243.38;;;8.00;100.00
24746;BME280;12845;52.042;6.838;2023-03-26T02:55:43;-18241.31;;;7.92;100.00
24746;BME280;12845;52.042;6.838;2023-03-26T02:58:09;-18241.44;;;7.93;100.00
24746;BME280;12845;52.042;6.838;2023-03-26T03:00:36;-18241.44;;;7.93;100.00
24746;BME280;12845;52.042;6.838;2023-03-26T03:03:02;-18241.56;;;7.93;100.00
24746;BME280;12845;52.042;6.838;2023-03-26T03:05:29;-18241.72;;;7.94;100.00
24746;BME280;12845;52.042;6.838;2023-03-26T03:07:56;-18241.72;;;7.94;100.00
24746;BME280;12845;52.042;6.838;2023-03-26T03:10:23;-18241.84;;;7.94;100.00
24746;BME280;12845;52.042;6.838;2023-03-26T03:12:49;-18242.81;;;7.98;100.00
24746;BME280;12845;52.042;6.838;2023-03-26T03:15:14;-18242.00;;;7.95;100.00
24746;BME280;12845;52.042;6.838;2023-03-26T03:17:40;-18242.13;;;7.95;100.00
24746;BME280;12845;52.042;6.838;2023-03-26T03:20:06;-18242.25;;;7.96;100.00
24746;BME280;12845;52.042;6.838;2023-03-26T03:22:35;-18242.25;;;7.96;100.00
24746;BME280;12845;52.042;6.838;2023-03-26T03:25:02;-18242.81;;;7.98;100.00
24746;BME280;12845;52.042;6.838;2023-03-26T03:27:27;-18242.25;;;7.96;100.00
24746;BME280;12845;52.042;6.838;2023-03-26T03:29:53;-18242.69;;;7.97;100.00
24746;BME280;12845;52.042;6.838;2023-03-26T03:32:20;-18242.00;;;7.95;100.00
24746;BME280;12845;52.042;6.838;2023-03-26T03:34:47;-18241.56;;;7.93;100.00
24746;BME280;12845;52.042;6.838;2023-03-26T03:37:15;-18240.88;;;7.90;100.00
24746;BME280;12845;52.042;6.838;2023-03-26T03:39:40;-18241.44;;;7.93;100.00
24746;BME280;12845;52.042;6.838;2023-03-26T03:42:06;-18242.00;;;7.95;100.00
24746;BME280;12845;52.042;6.838;2023-03-26T03:44:31;-18241.72;;;7.94;100.00
24746;BME280;12845;52.042;6.838;2023-03-26T03:46:56;-18241.44;;;7.93;100.00
24746;BME280;12845;52.042;6.838;2023-03-26T03:49:22;-18240.75;;;7.90;100.00
24746;BME280;12845;52.042;6.838;2023-03-26T03:51:47;-18239.91;;;7.87;100.00
24746;BME280;12845;52.042;6.838;2023-03-26T03:54:13;-18239.66;;;7.86;100.00
24746;BME280;12845;52.042;6.838;2023-03-26T03:56:38;-18239.91;;;7.87;100.00
24746;BME280;12845;52.042;6.838;2023-03-26T03:59:04;-18240.19;;;7.88;100.00
24746;BME280;12845;52.042;6.838;2023-03-26T04:01:30;-18240.34;;;7.88;100.00
24746;BME280;12845;52.042;6.838;2023-03-26T04:03:56;-18240.19;;;7.88;100.00
24746;BME280;12845;52.042;6.838;2023-03-26T04:06:23;-18240.47;;;7.89;100.00
24746;BME280;12845;52.042;6.838;2023-03-26T04:08:49;-18240.06;;;7.87;100.00
24746;BME280;12845;52.042;6.838;2023-03-26T04:11:15;-18240.47;;;7.89;100.00
24746;BME280;12845;52.042;6.838;2023-03-26T04:13:40;-18239.91;;;7.87;100.00
24746;BME280;12845;52.042;6.838;2023-03-26T04:16:06;-18240.88;;;7.90;100.00
24746;BME280;12845;52.042;6.838;2023-03-26T04:18:32;-18240.88;;;7.90;100.00
24746;BME280;12845;52.042;6.838;2023-03-26T04:20:57;-18240.47;;;7.89;100.00
24746;BME280;12845;52.042;6.838;2023-03-26T04:23:26;-18239.78;;;7.86;100.00
24746;BME280;12845;52.042;6.838;2023-03-26T04:25:53;-18237.72;;;7.79;100.00
24746;BME280;12845;52.042;6.838;2023-03-26T04:28:43;-18238.69;;;7.82;100.00
24746;BME280;12845;52.042;6.838;2023-03-26T04:31:16;-18238.97;;;7.83;100.00
24746;BME280;12845;52.042;6.838;2023-03-26T04:33:44;-18238.81;;;7.83;100.00
24746;BME280;12845;52.042;6.838;2023-03-26T04:36:14;-18239.22;;;7.84;100.00
24746;BME280;12845;52.042;6.838;2023-03-26T04:38:45;-18239.22;;;7.84;100.00
24746;BME280;12845;52.042;6.838;2023-03-26T04:41:14;-18239.09;;;7.84;100.00
24746;BME280;12845;52.042;6.838;2023-03-26T04:43:40;-18239.78;;;7.86;100.00
24746;BME280;12845;52.042;6.838;2023-03-26T04:46:14;-18239.22;;;7.84;100.00
24746;BME280;12845;52.042;6.838;2023-03-26T04:48:42;-18238.81;;;7.83;100.00
24746;BME280;12845;52.042;6.838;2023-03-26T04:51:08;-18238.69;;;7.82;100.00
24746;BME280;12845;52.042;6.838;2023-03-26T04:53:42;-18238.41;;;7.81;100.00
24746;BME280;12845;52.042;6.838;2023-03-26T04:56:29;-18238.97;;;7.83;100.00
24746;BME280;12845;52.042;6.838;2023-03-26T04:58:58;-18239.09;;;7.84;100.00
24746;BME280;12845;52.042;6.838;2023-03-26T05:01:25;-18239.22;;;7.84;100.00
24746;BME280;12845;52.042;6.838;2023-03-26T05:03:53;-18239.91;;;7.87;100.00
24746;BME280;12845;52.042;6.838;2023-03-26T05:06:19;-18241.16;;;7.91;100.00
24746;BME280;12845;52.042;6.838;2023-03-26T05:08:44;-18241.03;;;7.91;100.00
24746;BME280;12845;52.042;6.838;2023-03-26T05:11:10;-18239.91;;;7.87;100.00
24746;BME280;12845;52.042;6.838;2023-03-26T05:13:36;-18240.19;;;7.88;100.00
24746;BME280;12845;52.042;6.838;2023-03-26T05:16:02;-18240.19;;;7.88;100.00
24746;BME280;12845;52.042;6.838;2023-03-26T05:18:27;-18239.22;;;7.84;100.00
24746;BME280;12845;52.042;6.838;2023-03-26T05:20:52;-18238.41;;;7.81;100.00
24746;BME280;12845;52.042;6.838;2023-03-26T05:23:18;-18241.03;;;7.91;100.00
24746;BME280;12845;52.042;6.838;2023-03-26T05:25:43;-18242.53;;;7.97;100.00
24746;BME280;12845;52.042;6.838;2023-03-26T05:28:09;-18242.81;;;7.98;100.00
24746;BME280;12845;52.042;6.838;2023-03-26T05:30:35;-18239.78;;;7.86;100.00
24746;BME280;12845;52.042;6.838;2023-03-26T05:33:00;-18239.78;;;7.86;100.00
24746;BME280;12845;52.042;6.838;2023-03-26T05:35:27;-18237.03;;;7.76;100.00
24746;BME280;12845;52.042;6.838;2023-03-26T05:37:52;-18237.44;;;7.78;100.00
24746;BME280;12845;52.042;6.838;2023-03-26T05:40:18;-18237.59;;;7.78;100.00
24746;BME280;12845;52.042;6.838;2023-03-26T05:42:44;-18237.03;;;7.76;100.00
24746;BME280;12845;52.042;6.838;2023-03-26T05:45:11;-18236.47;;;7.74;100.00
24746;BME280;12845;52.042;6.838;2023-03-26T05:47:37;-18236.47;;;7.74;100.00
24746;BME280;12845;52.042;6.838;2023-03-26T05:50:03;-18237.44;;;7.78;100.00
24746;BME280;12845;52.042;6.838;2023-03-26T05:52:29;-18237.16;;;7.77;100.00
24746;BME280;12845;52.042;6.838;2023-03-26T05:54:55;-18237.59;;;7.78;100.00
24746;BME280;12845;52.042;6.838;2023-03-26T05:57:20;-18237.16;;;7.77;100.00
24746;BME280;12845;52.042;6.838;2023-03-26T05:59:48;-18236.88;;;7.76;100.00
24746;BME280;12845;52.042;6.838;2023-03-26T06:02:14;-18237.03;;;7.76;100.00
24746;BME280;12845;52.042;6.838;2023-03-26T06:04:39;-18236.47;;;7.74;100.00
24746;BME280;12845;52.042;6.838;2023-03-26T06:07:06;-18237.03;;;7.76;100.00
24746;BME280;12845;52.042;6.838;2023-03-26T06:09:43;-18236.06;;;7.73;100.00
24746;BME280;12845;52.042;6.838;2023-03-26T06:12:09;-18236.63;;;7.75;100.00
24746;BME280;12845;52.042;6.838;2023-03-26T06:14:35;-18236.34;;;7.74;100.00
24746;BME280;12845;52.042;6.838;2023-03-26T06:17:01;-18237.16;;;7.77;100.00
24746;BME280;12845;52.042;6.838;2023-03-26T06:19:26;-18237.16;;;7.77;100.00
24746;BME280;12845;52.042;6.838;2023-03-26T06:21:52;-18237.84;;;7.79;100.00
24746;BME280;12845;52.042;6.838;2023-03-26T06:24:17;-18237.31;;;7.77;100.00
24746;BME280;12845;52.042;6.838;2023-03-26T06:26:44;-18237.72;;;7.79;100.00
24746;BME280;12845;52.042;6.838;2023-03-26T06:29:10;-18238.13;;;7.80;100.00
24746;BME280;12845;52.042;6.838;2023-03-26T06:31:35;-18238.41;;;7.81;100.00
24746;BME280;12845;52.042;6.838;2023-03-26T06:34:01;-18238.28;;;7.81;100.00
24746;BME280;12845;52.042;6.838;2023-03-26T06:36:26;-18239.22;;;7.84;100.00
24746;BME280;12845;52.042;6.838;2023-03-26T06:38:52;-18238.97;;;7.83;100.00
24746;BME280;12845;52.042;6.838;2023-03-26T06:41:17;-18239.78;;;7.86;100.00
24746;BME280;12845;52.042;6.838;2023-03-26T06:43:42;-18239.50;;;7.85;100.00
24746;BME280;12845;52.042;6.838;2023-03-26T06:46:08;-18239.66;;;7.86;100.00
24746;BME280;12845;52.042;6.838;2023-03-26T06:48:34;-18239.50;;;7.85;100.00
24746;BME280;12845;52.042;6.838;2023-03-26T06:50:59;-18240.06;;;7.87;100.00
24746;BME280;12845;52.042;6.838;2023-03-26T06:53:24;-18241.03;;;7.91;100.00
24746;BME280;12845;52.042;6.838;2023-03-26T06:55:51;-18242.00;;;7.95;100.00
24746;BME280;12845;52.042;6.838;2023-03-26T06:58:17;-18242.25;;;7.96;100.00
24746;BME280;12845;52.042;6.838;2023-03-26T07:00:42;-18243.63;;;8.01;100.00
24746;BME280;12845;52.042;6.838;2023-03-26T07:03:08;-18244.06;;;8.02;100.00
24746;BME280;12845;52.042;6.838;2023-03-26T07:05:35;-18244.19;;;8.03;100.00
24746;BME280;12845;52.042;6.838;2023-03-26T07:08:01;-18244.19;;;8.03;100.00
24746;BME280;12845;52.042;6.838;2023-03-26T07:10:27;-18245.16;;;8.06;100.00
24746;BME280;12845;52.042;6.838;2023-03-26T07:12:52;-18244.88;;;8.05;100.00
24746;BME280;12845;52.042;6.838;2023-03-26T07:15:17;-18245.69;;;8.08;100.00
24746;BME280;12845;52.042;6.838;2023-03-26T07:17:46;-18246.38;;;8.11;100.00
24746;BME280;12845;52.042;6.838;2023-03-26T07:20:14;-18247.22;;;8.14;100.00
24746;BME280;12845;52.042;6.838;2023-03-26T07:22:43;-18247.50;;;8.15;100.00
24746;BME280;12845;52.042;6.838;2023-03-26T07:25:09;-18246.94;;;8.13;100.00
24746;BME280;12845;52.042;6.838;2023-03-26T07:33:17;-18247.78;;;8.16;100.00
24746;BME280;12845;52.042;6.838;2023-03-26T07:35:49;-18249.00;;;8.21;100.00
24746;BME280;12845;52.042;6.838;2023-03-26T07:41:07;-18250.66;;;8.27;100.00
24746;BME280;12845;52.042;6.838;2023-03-26T07:46:29;-18249.28;;;8.22;100.00
24746;BME280;12845;52.042;6.838;2023-03-26T07:48:56;-18249.16;;;8.21;100.00
24746;BME280;12845;52.042;6.838;2023-03-26T07:51:26;-18249.56;;;8.23;100.00
24746;BME280;12845;52.042;6.838;2023-03-26T07:53:52;-18250.25;;;8.25;100.00
24746;BME280;12845;52.042;6.838;2023-03-26T07:56:36;-18251.50;;;8.30;100.00
24746;BME280;12845;52.042;6.838;2023-03-26T08:01:50;-18253.28;;;8.36;100.00
24746;BME280;12845;52.042;6.838;2023-03-26T08:10:11;-18254.94;;;8.43;100.00
24746;BME280;12845;52.042;6.838;2023-03-26T08:12:54;-18254.38;;;8.41;100.00
24746;BME280;12845;52.042;6.838;2023-03-26T08:15:35;-18254.66;;;8.42;100.00
24746;BME280;12845;52.042;6.838;2023-03-26T08:20:59;-18255.34;;;8.44;100.00
24746;BME280;12845;52.042;6.838;2023-03-26T08:23:36;-18257.13;;;8.51;100.00
24746;BME280;12845;52.042;6.838;2023-03-26T08:26:16;-18256.31;;;8.48;100.00
24746;BME280;12845;52.042;6.838;2023-03-26T08:29:00;-18256.44;;;8.48;100.00
24746;BME280;12845;52.042;6.838;2023-03-26T08:31:38;-18256.59;;;8.49;100.00
24746;BME280;12845;52.042;6.838;2023-03-26T08:34:09;-18257.28;;;8.51;100.00
24746;BME280;12845;52.042;6.838;2023-03-26T08:36:36;-18256.88;;;8.50;100.00
24746;BME280;12845;52.042;6.838;2023-03-26T08:39:02;-18257.56;;;8.52;100.00
24746;BME280;12845;52.042;6.838;2023-03-26T08:49:55;-18257.69;;;8.53;100.00
24746;BME280;12845;52.042;6.838;2023-03-26T08:52:36;-18257.69;;;8.53;100.00
24746;BME280;12845;52.042;6.838;2023-03-26T09:12:13;-18263.47;;;8.74;100.00
24746;BME280;12845;52.042;6.838;2023-03-26T09:17:39;-18265.41;;;8.81;100.00
24746;BME280;12845;52.042;6.838;2023-03-26T09:20:40;-18268.00;;;8.91;100.00
24746;BME280;12845;52.042;6.838;2023-03-26T09:26:03;-18266.91;;;8.87;100.00
24746;BME280;12845;52.042;6.838;2023-03-26T09:36:55;-18270.63;;;9.01;100.00
24746;BME280;12845;52.042;6.838;2023-03-26T09:39:50;-18270.63;;;9.01;100.00
24746;BME280;12845;52.042;6.838;2023-03-26T09:45:50;-18268.41;;;8.93;100.00
24746;BME280;12845;52.042;6.838;2023-03-26T09:48:29;-18270.47;;;9.00;100.00
24746;BME280;12845;52.042;6.838;2023-03-26T09:53:59;-18270.06;;;8.99;100.00
24746;BME280;12845;52.042;6.838;2023-03-26T10:02:15;-18273.38;;;9.11;100.00
24746;BME280;12845;52.042;6.838;2023-03-26T10:13:10;-18272.81;;;9.09;100.00
24746;BME280;12845;52.042;6.838;2023-03-26T10:21:02;-18273.09;;;9.10;100.00
24746;BME280;12845;52.042;6.838;2023-03-26T10:23:41;-18272.28;;;9.07;100.00
24746;BME280;12845;52.042;6.838;2023-03-26T10:31:51;-18264.56;;;8.78;100.00
24746;BME280;12845;52.042;6.838;2023-03-26T10:34:47;-18262.78;;;8.72;100.00
24746;BME280;12845;52.042;6.838;2023-03-26T10:45:23;-18255.91;;;8.46;100.00
24746;BME280;12845;52.042;6.838;2023-03-26T10:53:29;-18253.69;;;8.38;100.00
24746;BME280;12845;52.042;6.838;2023-03-26T10:59:04;-18255.47;;;8.45;100.00
24746;BME280;12845;52.042;6.838;2023-03-26T11:04:02;-18253.69;;;8.38;100.00
24746;BME280;12845;52.042;6.838;2023-03-26T11:06:36;-18255.06;;;8.43;100.00
24746;BME280;12845;52.042;6.838;2023-03-26T11:12:43;-18252.88;;;8.35;100.00
24746;BME280;12845;52.042;6.838;2023-03-26T11:15:23;-18250.78;;;8.27;100.00
24746;BME280;12845;52.042;6.838;2023-03-26T11:20:47;-18250.94;;;8.28;100.00
24746;BME280;12845;52.042;6.838;2023-03-26T11:33:40;-18252.03;;;8.32;100.00
24746;BME280;12845;52.042;6.838;2023-03-26T11:36:11;-18253.84;;;8.39;100.00
24746;BME280;12845;52.042;6.838;2023-03-26T11:38:43;-18254.09;;;8.40;100.00
24746;BME280;12845;52.042;6.838;2023-03-26T11:41:17;-18253.84;;;8.39;100.00
24746;BME280;12845;52.042;6.838;2023-03-26T11:43:48;-18253.00;;;8.35;100.00
24746;BME280;12845;52.042;6.838;2023-03-26T11:46:17;-18253.00;;;8.35;100.00
24746;BME280;12845;52.042;6.838;2023-03-26T11:48:47;-18252.44;;;8.33;100.00
24746;BME280;12845;52.042;6.838;2023-03-26T11:51:15;-18251.63;;;8.30;100.00
24746;BME280;12845;52.042;6.838;2023-03-26T11:53:42;-18246.94;;;8.13;100.00
24746;BME280;12845;52.042;6.838;2023-03-26T11:58:56;-18247.78;;;8.16;100.00
24746;BME280;12845;52.042;6.838;2023-03-26T12:01:27;-18249.28;;;8.22;100.00
24746;BME280;12845;52.042;6.838;2023-03-26T12:06:26;-18248.72;;;8.20;100.00
24746;BME280;12845;52.042;6.838;2023-03-26T12:08:53;-18249.28;;;8.22;100.00
24746;BME280;12845;52.042;6.838;2023-03-26T12:11:25;-18253.00;;;8.35;100.00
24746;BME280;12845;52.042;6.838;2023-03-26T12:14:00;-18251.50;;;8.30;100.00
24746;BME280;12845;52.042;6.838;2023-03-26T12:16:26;-18249.97;;;8.24;100.00
24746;BME280;12845;52.042;6.838;2023-03-26T12:19:16;-18247.78;;;8.16;100.00
24746;BME280;12845;52.042;6.838;2023-03-26T12:21:48;-18245.16;;;8.06;100.00
24746;BME280;12845;52.042;6.838;2023-03-26T12:24:31;-18246.53;;;8.11;100.00
24746;BME280;12845;52.042;6.838;2023-03-26T12:27:18;-18248.03;;;8.17;100.00
24746;BME280;12845;52.042;6.838;2023-03-26T12:29:49;-18245.97;;;8.09;100.00
24746;BME280;12845;52.042;6.838;2023-03-26T12:32:15;-18246.94;;;8.13;100.00
24746;BME280;12845;52.042;6.838;2023-03-26T12:34:41;-18246.81;;;8.12;100.00
24746;BME280;12845;52.042;6.838;2023-03-26T12:37:30;-18245.28;;;8.07;100.00
24746;BME280;12845;52.042;6.838;2023-03-26T12:40:06;-18247.09;;;8.13;100.00
24746;BME280;12845;52.042;6.838;2023-03-26T12:42:38;-18246.25;;;8.10;100.00
24746;BME280;12845;52.042;6.838;2023-03-26T12:45:05;-18245.97;;;8.09;100.00
24746;BME280;12845;52.042;6.838;2023-03-26T12:47:31;-18248.03;;;8.17;100.00
24746;BME280;12845;52.042;6.838;2023-03-26T12:49:57;-18245.69;;;8.08;100.00
24746;BME280;12845;52.042;6.838;2023-03-26T12:55:54;-18244.31;;;8.03;100.00
24746;BME280;12845;52.042;6.838;2023-03-26T13:01:14;-18244.88;;;8.05;100.00
24746;BME280;12845;52.042;6.838;2023-03-26T13:17:33;-18244.31;;;8.03;100.00
24746;BME280;12845;52.042;6.838;2023-03-26T13:20:14;-18245.97;;;8.09;100.00
24746;BME280;12845;52.042;6.838;2023-03-26T13:23:32;-18246.94;;;8.13;100.00
24746;BME280;12845;52.042;6.838;2023-03-26T13:29:04;-18244.06;;;8.02;100.00
24746;BME280;12845;52.042;6.838;2023-03-26T13:31:43;-18240.59;;;7.89;100.00
24746;BME280;12845;52.042;6.838;2023-03-26T13:42:29;-18240.06;;;7.87;100.00
24746;BME280;12845;52.042;6.838;2023-03-26T13:47:56;-18238.13;;;7.80;100.00
24746;BME280;12845;52.042;6.838;2023-03-26T13:50:36;-18239.09;;;7.84;100.00
24746;BME280;12845;52.042;6.838;2023-03-26T13:53:13;-18237.31;;;7.77;100.00
24746;BME280;12845;52.042;6.838;2023-03-26T13:55:43;-18238.00;;;7.80;100.00
24746;BME280;12845;52.042;6.838;2023-03-26T14:01:03;-18237.84;;;7.79;100.00
24746;BME280;12845;52.042;6.838;2023-03-26T14:15:16;-18239.91;;;7.87;100.00
24746;BME280;12845;52.042;6.838;2023-03-26T14:17:21;-18240.34;;;7.88;100.00
24746;BME280;12845;52.042;6.838;2023-03-26T14:20:07;-18242.25;;;7.96;100.00
24746;BME280;12845;52.042;6.838;2023-03-26T14:22:49;-18240.19;;;7.88;100.00
24746;BME280;12845;52.042;6.838;2023-03-26T14:28:23;-18247.09;;;8.13;100.00
24746;BME280;12845;52.042;6.838;2023-03-26T14:31:24;-18243.63;;;8.01;100.00
24746;BME280;12845;52.042;6.838;2023-03-26T14:41:52;-18247.34;;;8.14;100.00
24746;BME280;12845;52.042;6.838;2023-03-26T14:45:07;-18246.25;;;8.10;100.00
24746;BME280;12845;52.042;6.838;2023-03-26T14:50:35;-18249.69;;;8.23;100.00
24746;BME280;12845;52.042;6.838;2023-03-26T14:53:25;-18249.16;;;8.21;100.00
24746;BME280;12845;52.042;6.838;2023-03-26T15:42:02;-18243.22;;;7.99;100.00
24746;BME280;12845;52.042;6.838;2023-03-26T15:44:51;-18243.38;;;8.00;100.00
24746;BME280;12845;52.042;6.838;2023-03-26T15:47:44;-18241.56;;;7.93;100.00
24746;BME280;12845;52.042;6.838;2023-03-26T15:55:57;-18240.88;;;7.90;100.00
24746;BME280;12845;52.042;6.838;2023-03-26T15:58:35;-18239.50;;;7.85;100.00
24746;BME280;12845;52.042;6.838;2023-03-26T16:06:49;-18238.00;;;7.80;100.00
24746;BME280;12845;52.042;6.838;2023-03-26T16:15:12;-18237.44;;;7.78;100.00
24746;BME280;12845;52.042;6.838;2023-03-26T16:20:43;-18232.47;;;7.59;100.00
24746;BME280;12845;52.042;6.838;2023-03-26T16:23:35;-18232.75;;;7.60;100.00
24746;BME280;12845;52.042;6.838;2023-03-26T16:34:18;-18227.78;;;7.42;100.00
24746;BME280;12845;52.042;6.838;2023-03-26T16:36:43;-18228.06;;;7.43;100.00
24746;BME280;12845;52.042;6.838;2023-03-26T16:39:44;-18227.66;;;7.41;100.00
24746;BME280;12845;52.042;6.838;2023-03-26T16:42:40;-18225.88;;;7.35;100.00
24746;BME280;12845;52.042;6.838;2023-03-26T16:45:18;-18225.72;;;7.34;100.00
24746;BME280;12845;52.042;6.838;2023-03-26T16:53:59;-18220.38;;;7.14;100.00
24746;BME280;12845;52.042;6.838;2023-03-26T16:56:48;-18219.94;;;7.13;100.00
24746;BME280;12845;52.042;6.838;2023-03-26T16:59:38;-18219.94;;;7.13;100.00
24746;BME280;12845;52.042;6.838;2023-03-26T17:02:46;-18219.66;;;7.12;100.00
24746;BME280;12845;52.042;6.838;2023-03-26T17:05:22;-18217.31;;;7.03;100.00
24746;BME280;12845;52.042;6.838;2023-03-26T17:10:40;-18218.28;;;7.07;100.00
24746;BME280;12845;52.042;6.838;2023-03-26T17:13:20;-18219.53;;;7.11;100.00
24746;BME280;12845;52.042;6.838;2023-03-26T17:18:45;-18217.06;;;7.02;100.00
24746;BME280;12845;52.042;6.838;2023-03-26T17:37:59;-18209.47;;;6.74;100.00
24746;BME280;12845;52.042;6.838;2023-03-26T17:40:30;-18209.59;;;6.74;100.00
24746;BME280;12845;52.042;6.838;2023-03-26T17:43:09;-18207.28;;;6.66;100.00
24746;BME280;12845;52.042;6.838;2023-03-26T17:45:37;-18206.72;;;6.64;100.00
24746;BME280;12845;52.042;6.838;2023-03-26T17:48:15;-18206.44;;;6.63;100.00
24746;BME280;12845;52.042;6.838;2023-03-26T17:50:53;-18204.94;;;6.57;100.00
24746;BME280;12845;52.042;6.838;2023-03-26T17:53:27;-18203.41;;;6.51;100.00
24746;BME280;12845;52.042;6.838;2023-03-26T17:55:55;-18202.84;;;6.49;100.00
24746;BME280;12845;52.042;6.838;2023-03-26T17:58:26;-18202.03;;;6.46;100.00
24746;BME280;12845;52.042;6.838;2023-03-26T18:01:06;-18201.75;;;6.45;100.00
24746;BME280;12845;52.042;6.838;2023-03-26T18:03:49;-18200.25;;;6.40;100.00
24746;BME280;12845;52.042;6.838;2023-03-26T18:14:39;-18198.72;;;6.34;100.00
24746;BME280;12845;52.042;6.838;2023-03-26T18:17:07;-18198.31;;;6.32;100.00
24746;BME280;12845;52.042;6.838;2023-03-26T18:19:57;-18196.66;;;6.26;100.00
24746;BME280;12845;52.042;6.838;2023-03-26T18:22:29;-18194.84;;;6.20;100.00
24746;BME280;12845;52.042;6.838;2023-03-26T18:24:57;-18193.34;;;6.14;100.00
24746;BME280;12845;52.042;6.838;2023-03-26T18:27:25;-18194.31;;;6.18;100.00
24746;BME280;12845;52.042;6.838;2023-03-26T18:32:23;-18194.59;;;6.19;100.00
24746;BME280;12845;52.042;6.838;2023-03-26T18:35:12;-18194.03;;;6.17;100.00
24746;BME280;12845;52.042;6.838;2023-03-26T18:37:38;-18193.47;;;6.15;100.00